createdAt,value
2022-10-30T00:01:05.934Z,100549.81
2022-10-30T00:03:34.293Z,100556.91
2022-10-30T00:06:05.980Z,100558.78
2022-10-30T00:08:34.610Z,100565.75
2022-10-30T00:11:08.000Z,100560.53
2022-10-30T00:13:36.733Z,100549.81
2022-10-30T00:16:08.470Z,100550.69
2022-10-30T00:18:37.327Z,100547.97
2022-10-30T00:21:10.312Z,100544.53
2022-10-30T00:23:38.652Z,100545.47
2022-10-30T00:26:08.375Z,100546.41
2022-10-30T00:28:36.938Z,100547.28
2022-10-30T00:31:06.962Z,100544.63
2022-10-30T00:33:35.439Z,100530.97
2022-10-30T00:36:03.947Z,100554.56
2022-10-30T00:38:33.004Z,100558.91
2022-10-30T00:41:01.462Z,100558.78
2022-10-30T00:43:35.776Z,100540.22
2022-10-30T00:46:10.549Z,100549.59
2022-10-30T00:48:39.271Z,100556.59
2022-10-30T00:51:12.342Z,100545.03
2022-10-30T00:53:42.028Z,100554.63
2022-10-30T00:56:12.901Z,100547.53
2022-10-30T00:58:46.060Z,100548.38
2022-10-30T01:01:21.251Z,100544.00
2022-10-30T01:03:54.283Z,100547.53
2022-10-30T01:06:22.991Z,100549.13
2022-10-30T01:08:57.063Z,100533.53
2022-10-30T01:11:28.327Z,100555.25
2022-10-30T01:13:59.996Z,100537.88
2022-10-30T01:16:59.589Z,100556.28
2022-10-30T01:19:33.820Z,100556.16
2022-10-30T01:22:15.343Z,100556.09
2022-10-30T01:24:52.366Z,100561.44
2022-10-30T01:27:35.569Z,100558.84
2022-10-30T01:30:17.677Z,100564.19
2022-10-30T01:33:02.657Z,100554.59
2022-10-30T01:35:38.979Z,100541.47
2022-10-30T01:38:13.855Z,100551.16
2022-10-30T01:40:42.196Z,100547.72
2022-10-30T01:43:10.635Z,100547.69
2022-10-30T01:46:03.369Z,100548.63
2022-10-30T01:49:01.265Z,100548.63
2022-10-30T01:51:42.694Z,100566.19
2022-10-30T01:54:21.163Z,100553.03
2022-10-30T01:57:01.151Z,100551.28
2022-10-30T01:59:35.581Z,100543.31
2022-10-30T02:02:04.507Z,100547.72
2022-10-30T02:04:34.321Z,100544.25
2022-10-30T02:07:02.658Z,100547.72
2022-10-30T02:09:31.320Z,100533.69
2022-10-30T02:12:00.673Z,100550.38
2022-10-30T02:14:32.751Z,100543.38
2022-10-30T02:17:05.416Z,100542.59
2022-10-30T02:19:35.455Z,100554.97
2022-10-30T02:22:05.456Z,100544.41
2022-10-30T02:24:33.882Z,100552.97
2022-10-30T02:27:02.171Z,100531.22
2022-10-30T02:29:30.443Z,100546.16
2022-10-30T02:31:58.564Z,100555.06
2022-10-30T02:34:26.823Z,100541.91
2022-10-30T02:36:55.070Z,100548.06
2022-10-30T02:39:24.776Z,100537.50
2022-10-30T02:41:53.194Z,100510.44
2022-10-30T02:44:21.734Z,100529.63
2022-10-30T02:46:50.068Z,100535.78
2022-10-30T02:49:18.347Z,100530.50
2022-10-30T02:51:50.596Z,100530.50
2022-10-30T02:54:18.902Z,100535.84
2022-10-30T02:56:48.414Z,100537.63
2022-10-30T02:59:16.524Z,100537.63
2022-10-30T03:01:45.651Z,100532.41
2022-10-30T03:04:14.040Z,100535.97
2022-10-30T03:06:42.575Z,100540.41
2022-10-30T03:09:10.864Z,100541.31
2022-10-30T03:11:39.202Z,100518.59
2022-10-30T03:14:09.125Z,100530.72
2022-10-30T03:16:38.936Z,100530.63
2022-10-30T03:19:07.336Z,100531.56
2022-10-30T03:21:35.449Z,100528.97
2022-10-30T03:24:03.694Z,100527.25
2022-10-30T03:26:31.864Z,100529.09
2022-10-30T03:28:59.923Z,100534.38
2022-10-30T03:31:32.573Z,100521.41
2022-10-30T03:34:00.791Z,100525.69
2022-10-30T03:36:29.680Z,100513.44
2022-10-30T03:38:58.064Z,100522.19
2022-10-30T03:41:26.673Z,100520.44
2022-10-30T03:43:55.376Z,100524.06
2022-10-30T03:46:23.816Z,100523.13
2022-10-30T03:48:53.824Z,100511.72
2022-10-30T03:51:21.912Z,100513.44
2022-10-30T03:53:50.198Z,100503.66
2022-10-30T03:56:20.162Z,100501.06
2022-10-30T03:58:48.239Z,100501.13
2022-10-30T04:01:16.610Z,100502.88
2022-10-30T04:03:45.014Z,100502.88
2022-10-30T04:06:14.773Z,100501.16
2022-10-30T04:08:43.105Z,100497.72
2022-10-30T04:11:12.263Z,100503.84
2022-10-30T04:13:40.475Z,100504.72
2022-10-30T04:16:09.083Z,100503.84
2022-10-30T04:18:37.219Z,100496.81
2022-10-30T04:21:05.761Z,100482.03
2022-10-30T04:23:35.455Z,100510.00
2022-10-30T04:26:04.120Z,100499.31
2022-10-30T04:28:32.237Z,100495.59
2022-10-30T04:31:00.588Z,100492.91
2022-10-30T04:33:28.844Z,100496.34
2022-10-30T04:35:57.204Z,100500.84
2022-10-30T04:38:25.395Z,100506.13
2022-10-30T04:40:55.035Z,100504.38
2022-10-30T04:43:23.344Z,100482.53
2022-10-30T04:45:51.764Z,100500.84
2022-10-30T04:48:20.306Z,100511.28
2022-10-30T04:50:48.381Z,100512.03
2022-10-30T04:53:18.002Z,100506.13
2022-10-30T04:55:46.970Z,100516.53
2022-10-30T04:58:16.465Z,100513.06
2022-10-30T05:00:44.892Z,100518.34
2022-10-30T05:03:19.747Z,100500.88
2022-10-30T05:05:49.132Z,100492.13
2022-10-30T05:08:18.160Z,100502.50
2022-10-30T05:10:46.290Z,100494.59
2022-10-30T05:13:14.609Z,100483.19
2022-10-30T05:15:44.263Z,100488.41
2022-10-30T05:18:12.807Z,100491.88
2022-10-30T05:20:44.036Z,100491.00
2022-10-30T05:23:12.509Z,100483.97
2022-10-30T05:25:41.027Z,100483.06
2022-10-30T05:28:09.401Z,100483.00
2022-10-30T05:30:37.922Z,100478.63
2022-10-30T05:33:11.161Z,100470.75
2022-10-30T05:35:40.458Z,100485.47
2022-10-30T05:38:09.146Z,100491.59
2022-10-30T05:40:37.681Z,100484.56
2022-10-30T05:43:06.840Z,100488.16
2022-10-30T05:45:35.014Z,100488.13
2022-10-30T05:48:05.194Z,100490.75
2022-10-30T05:50:35.804Z,100496.88
2022-10-30T05:53:05.915Z,100498.59
2022-10-30T05:55:34.813Z,100491.44
2022-10-30T05:58:05.585Z,100496.72
2022-10-30T06:00:35.579Z,100487.97
2022-10-30T06:03:08.433Z,100486.09
2022-10-30T06:05:39.058Z,100483.47
2022-10-30T06:08:09.197Z,100479.88
2022-10-30T06:10:37.994Z,100482.38
2022-10-30T06:13:08.992Z,100486.78
2022-10-30T06:15:37.283Z,100491.13
2022-10-30T06:18:06.369Z,100483.25
2022-10-30T06:20:34.864Z,100485.94
2022-10-30T06:23:07.296Z,100491.34
2022-10-30T06:25:41.035Z,100479.84
2022-10-30T06:28:10.605Z,100478.78
2022-10-30T06:30:39.178Z,100481.50
2022-10-30T06:33:07.433Z,100477.06
2022-10-30T06:35:36.034Z,100485.06
2022-10-30T06:38:06.195Z,100482.59
2022-10-30T06:40:34.816Z,100489.69
2022-10-30T06:43:03.228Z,100483.53
2022-10-30T06:45:31.727Z,100495.91
2022-10-30T06:48:02.023Z,100496.88
2022-10-30T06:50:30.733Z,100488.13
2022-10-30T06:52:59.002Z,100501.34
2022-10-30T06:55:28.608Z,100489.97
2022-10-30T06:57:58.089Z,100498.69
2022-10-30T07:00:26.674Z,100502.16
2022-10-30T07:02:59.567Z,100503.84
2022-10-30T07:05:28.760Z,100486.50
2022-10-30T07:07:58.475Z,100502.16
2022-10-30T07:10:28.156Z,100507.41
2022-10-30T07:12:59.044Z,100503.78
2022-10-30T07:15:28.048Z,100514.25
2022-10-30T07:17:58.265Z,100516.03
2022-10-30T07:20:29.804Z,100510.69
2022-10-30T07:22:58.363Z,100516.09
2022-10-30T07:25:28.526Z,100512.78
2022-10-30T07:27:58.422Z,100528.59
2022-10-30T07:30:28.514Z,100537.50
2022-10-30T07:33:02.443Z,100525.22
2022-10-30T07:35:32.073Z,100532.25
2022-10-30T07:38:04.733Z,100537.59
2022-10-30T07:40:35.301Z,100530.53
2022-10-30T07:43:05.615Z,100538.47
2022-10-30T07:45:34.572Z,100534.91
2022-10-30T07:48:03.954Z,100549.00
2022-10-30T07:50:32.567Z,100535.78
2022-10-30T07:53:00.870Z,100541.91
2022-10-30T07:55:29.259Z,100539.25
2022-10-30T07:57:59.113Z,100535.72
2022-10-30T08:00:27.973Z,100538.28
2022-10-30T08:02:58.645Z,100524.97
2022-10-30T08:05:30.102Z,100524.88
2022-10-30T08:07:59.893Z,100519.44
2022-10-30T08:10:29.756Z,100522.03
2022-10-30T08:13:00.117Z,100512.28
2022-10-30T08:15:28.521Z,100510.47
2022-10-30T08:17:57.251Z,100505.22
2022-10-30T08:20:26.618Z,100498.38
2022-10-30T08:22:56.828Z,100519.34
2022-10-30T08:25:27.950Z,100519.34
2022-10-30T08:27:59.938Z,100514.03
2022-10-30T08:30:30.904Z,100513.13
2022-10-30T08:33:00.407Z,100519.22
2022-10-30T08:35:29.815Z,100513.78
2022-10-30T08:37:59.328Z,100519.06
2022-10-30T08:40:28.763Z,100517.34
2022-10-30T08:43:00.069Z,100514.75
2022-10-30T08:45:31.181Z,100510.38
2022-10-30T08:48:00.894Z,100517.34
2022-10-30T08:50:29.658Z,100517.34
2022-10-30T08:52:58.142Z,100522.50
2022-10-30T08:55:26.676Z,100519.78
2022-10-30T08:57:54.906Z,100523.22
2022-10-30T09:00:24.828Z,100513.47
2022-10-30T09:02:54.016Z,100511.66
2022-10-30T09:05:22.800Z,100513.41
2022-10-30T09:07:57.635Z,100511.59
2022-10-30T09:10:26.196Z,100486.97
2022-10-30T09:12:58.216Z,100494.72
2022-10-30T09:15:28.512Z,100494.69
2022-10-30T09:17:58.255Z,100505.97
2022-10-30T09:20:27.593Z,100490.25
2022-10-30T09:22:56.601Z,100530.59
2022-10-30T09:25:25.160Z,100532.41
2022-10-30T09:27:53.735Z,100517.44
2022-10-30T09:30:22.592Z,100525.19
2022-10-30T09:32:57.930Z,100530.59
2022-10-30T09:35:27.373Z,100523.00
2022-10-30T09:37:56.668Z,100541.25
2022-10-30T09:40:34.336Z,100534.13
2022-10-30T09:43:10.237Z,100516.53
2022-10-30T09:46:12.759Z,100542.78
2022-10-30T09:48:56.419Z,100540.13
2022-10-30T09:51:44.780Z,100547.94
2022-10-30T09:54:22.189Z,100536.47
2022-10-30T09:57:01.063Z,100549.47
2022-10-30T09:59:44.075Z,100540.59
2022-10-30T10:02:31.879Z,100554.75
2022-10-30T10:05:10.318Z,100564.34
2022-10-30T10:07:48.849Z,100564.28
2022-10-30T10:10:23.536Z,100562.72
2022-10-30T10:13:01.039Z,100574.13
2022-10-30T10:15:41.992Z,100575.78
2022-10-30T10:18:18.049Z,100572.28
2022-10-30T10:20:52.529Z,100572.13
2022-10-30T10:23:27.727Z,100566.84
2022-10-30T10:25:57.276Z,100558.72
2022-10-30T10:28:50.090Z,100566.59
2022-10-30T10:31:30.989Z,100552.66
2022-10-30T10:34:17.907Z,100570.00
2022-10-30T10:36:55.483Z,100553.13
2022-10-30T10:39:41.736Z,100555.59
2022-10-30T10:42:25.895Z,100566.31
2022-10-30T10:45:13.904Z,100569.81
2022-10-30T10:48:07.237Z,100566.28
2022-10-30T10:50:41.537Z,100557.34
2022-10-30T10:53:19.838Z,100546.69
2022-10-30T10:55:53.002Z,100535.09
2022-10-30T10:58:28.411Z,100535.84
2022-10-30T11:00:58.933Z,100542.59
2022-10-30T11:03:34.248Z,100539.81
2022-10-30T11:06:14.291Z,100543.91
2022-10-30T11:08:44.737Z,100543.63
2022-10-30T11:11:13.017Z,100536.25
2022-10-30T11:13:43.174Z,100532.28
2022-10-30T11:16:22.724Z,100532.19
2022-10-30T11:18:55.649Z,100532.91
2022-10-30T11:21:25.728Z,100541.16
2022-10-30T11:23:56.467Z,100533.22
2022-10-30T11:26:30.896Z,100538.16
2022-10-30T11:29:03.318Z,100527.28
2022-10-30T11:31:38.310Z,100535.09
2022-10-30T11:34:34.003Z,100545.00
2022-10-30T11:37:02.642Z,100550.31
2022-10-30T11:39:34.296Z,100557.09
2022-10-30T11:42:06.977Z,100566.09
2022-10-30T11:44:41.943Z,100557.22
2022-10-30T11:47:12.542Z,100569.75
2022-10-30T11:49:47.683Z,100559.31
2022-10-30T11:52:19.331Z,100583.75
2022-10-30T11:54:53.748Z,100576.84
2022-10-30T11:57:33.297Z,100579.44
2022-10-30T12:00:05.202Z,100580.53
2022-10-30T12:02:43.380Z,100592.63
2022-10-30T12:05:34.486Z,100590.78
2022-10-30T12:08:30.570Z,100588.88
2022-10-30T12:11:02.694Z,100586.94
2022-10-30T12:13:38.029Z,100581.84
2022-10-30T12:16:23.777Z,100595.94
2022-10-30T12:19:02.895Z,100594.09
2022-10-30T12:21:33.118Z,100611.25
2022-10-30T12:24:07.078Z,100618.09
2022-10-30T12:26:40.723Z,100614.25
2022-10-30T12:29:16.759Z,100610.59
2022-10-30T12:31:52.736Z,100608.44
2022-10-30T12:34:40.321Z,100608.75
2022-10-30T12:37:17.072Z,100612.53
2022-10-30T12:39:54.430Z,100612.53
2022-10-30T12:42:25.582Z,100609.88
2022-10-30T12:45:02.876Z,100612.31
2022-10-30T12:47:40.713Z,100599.88
2022-10-30T12:50:20.534Z,100608.75
2022-10-30T12:52:55.094Z,100615.03
2022-10-30T12:55:28.085Z,100614.25
2022-10-30T12:58:05.245Z,100614.34
2022-10-30T13:00:41.990Z,100615.19
2022-10-30T13:03:25.258Z,100620.44
2022-10-30T13:05:57.715Z,100617.63
2022-10-30T13:08:32.161Z,100615.81
2022-10-30T13:11:05.589Z,100619.56
2022-10-30T13:13:38.339Z,100612.66
2022-10-30T13:16:14.617Z,100612.59
2022-10-30T13:18:42.888Z,100607.38
2022-10-30T13:21:24.080Z,100607.22
2022-10-30T13:23:55.988Z,100614.16
2022-10-30T13:26:40.865Z,100607.13
2022-10-30T13:29:21.826Z,100603.63
2022-10-30T13:31:59.034Z,100607.13
2022-10-30T13:34:45.608Z,100608.31
2022-10-30T13:37:21.464Z,100604.09
2022-10-30T13:40:06.819Z,100610.28
2022-10-30T13:42:48.290Z,100612.91
2022-10-30T13:45:45.999Z,100609.47
2022-10-30T13:48:25.644Z,100613.91
2022-10-30T13:51:14.617Z,100625.31
2022-10-30T13:53:46.875Z,100632.41
2022-10-30T13:56:18.794Z,100625.31
2022-10-30T13:58:50.721Z,100621.78
2022-10-30T14:01:26.110Z,100615.59
2022-10-30T14:04:04.743Z,100626.19
2022-10-30T14:06:42.253Z,100624.41
2022-10-30T14:09:17.656Z,100620.00
2022-10-30T14:11:46.684Z,100623.66
2022-10-30T14:14:30.863Z,100606.34
2022-10-30T14:17:18.877Z,100618.63
2022-10-30T14:20:28.236Z,100622.19
2022-10-30T14:23:19.848Z,100609.06
2022-10-30T14:26:15.552Z,100597.75
2022-10-30T14:28:45.981Z,100608.19
2022-10-30T14:31:19.414Z,100609.97
2022-10-30T14:33:51.632Z,100602.97
2022-10-30T14:36:23.269Z,100605.50
2022-10-30T14:39:01.992Z,100600.22
2022-10-30T14:41:50.315Z,100601.03
2022-10-30T14:45:02.830Z,100598.28
2022-10-30T14:47:59.947Z,100594.25
2022-10-30T14:50:58.083Z,100604.72
2022-10-30T14:53:41.975Z,100593.22
2022-10-30T14:56:20.659Z,100590.53
2022-10-30T14:59:21.316Z,100592.34
2022-10-30T15:02:10.517Z,100592.44
2022-10-30T15:04:55.172Z,100597.66
2022-10-30T15:07:34.315Z,100599.41
2022-10-30T15:10:13.658Z,100601.22
2022-10-30T15:13:08.642Z,100598.59
2022-10-30T15:15:37.519Z,100608.25
2022-10-30T15:18:11.811Z,100604.72
2022-10-30T15:20:41.521Z,100601.03
2022-10-30T15:23:26.530Z,100602.88
2022-10-30T15:25:56.769Z,100596.75
2022-10-30T15:28:28.980Z,100588.88
2022-10-30T15:31:02.052Z,100594.91
2022-10-30T15:33:31.757Z,100597.56
2022-10-30T15:36:00.293Z,100585.09
2022-10-30T15:38:30.460Z,100595.94
2022-10-30T15:41:00.977Z,100585.31
2022-10-30T15:43:34.392Z,100578.25
2022-10-30T15:46:03.247Z,100580.72
2022-10-30T15:48:34.702Z,100592.31
2022-10-30T15:51:05.772Z,100592.44
2022-10-30T15:53:42.246Z,100588.94
2022-10-30T15:56:20.108Z,100591.59
2022-10-30T15:58:51.943Z,100591.53
2022-10-30T16:01:28.321Z,100594.19
2022-10-30T16:03:57.085Z,100594.09
2022-10-30T16:06:27.193Z,100572.25
2022-10-30T16:08:57.000Z,100590.53
2022-10-30T16:11:26.831Z,100579.06
2022-10-30T16:13:55.344Z,100578.25
2022-10-30T16:16:28.643Z,100583.69
2022-10-30T16:19:01.506Z,100581.09
2022-10-30T16:21:31.356Z,100559.22
2022-10-30T16:24:03.195Z,100569.91
2022-10-30T16:26:33.990Z,100580.25
2022-10-30T16:29:09.031Z,100590.88
2022-10-30T16:31:38.632Z,100581.91
2022-10-30T16:34:13.666Z,100587.22
2022-10-30T16:36:43.657Z,100587.16
2022-10-30T16:39:17.123Z,100583.75
2022-10-30T16:41:46.593Z,100573.31
2022-10-30T16:44:27.923Z,100586.34
2022-10-30T16:46:58.896Z,100587.22
2022-10-30T16:49:32.852Z,100573.16
2022-10-30T16:52:05.530Z,100582.91
2022-10-30T16:54:39.375Z,100590.78
2022-10-30T16:57:17.120Z,100583.63
2022-10-30T16:59:49.542Z,100589.06
2022-10-30T17:02:21.966Z,100590.69
2022-10-30T17:04:55.526Z,100592.34
2022-10-30T17:07:28.230Z,100571.31
2022-10-30T17:09:59.673Z,100582.66
2022-10-30T17:12:30.331Z,100584.50
2022-10-30T17:15:13.371Z,100581.91
2022-10-30T17:17:45.300Z,100576.69
2022-10-30T17:20:30.821Z,100574.03
2022-10-30T17:23:08.945Z,100581.13
2022-10-30T17:25:42.952Z,100580.38
2022-10-30T17:28:27.441Z,100571.09
2022-10-30T17:30:56.865Z,100584.38
2022-10-30T17:33:36.502Z,100578.38
2022-10-30T17:36:06.319Z,100574.09
2022-10-30T17:38:35.476Z,100576.09
2022-10-30T17:41:06.547Z,100573.50
2022-10-30T17:43:48.454Z,100576.09
2022-10-30T17:46:20.338Z,100579.69
2022-10-30T17:48:49.855Z,100590.44
2022-10-30T17:51:19.289Z,100576.44
2022-10-30T17:53:49.404Z,100585.41
2022-10-30T17:56:23.255Z,100585.31
2022-10-30T17:58:51.546Z,100572.97
2022-10-30T18:01:22.688Z,100589.03
2022-10-30T18:03:51.582Z,100575.81
2022-10-30T18:06:22.176Z,100565.22
2022-10-30T18:08:51.198Z,100566.03
2022-10-30T18:11:24.877Z,100560.25
2022-10-30T18:13:54.621Z,100569.66
2022-10-30T18:16:22.944Z,100569.72
2022-10-30T18:18:52.110Z,100562.84
2022-10-30T18:21:22.064Z,100557.84
2022-10-30T18:23:52.775Z,100564.91
2022-10-30T18:26:25.337Z,100552.88
2022-10-30T18:28:54.561Z,100557.91
2022-10-30T18:31:25.181Z,100555.19
2022-10-30T18:34:05.615Z,100551.03
2022-10-30T18:36:34.095Z,100559.13
2022-10-30T18:39:02.578Z,100544.16
2022-10-30T18:41:34.831Z,100551.28
2022-10-30T18:44:03.482Z,100552.28
2022-10-30T18:46:33.041Z,100556.72
2022-10-30T18:49:01.928Z,100555.16
2022-10-30T18:51:30.658Z,100549.91
2022-10-30T18:53:59.095Z,100545.56
2022-10-30T18:56:29.330Z,100553.50
2022-10-30T18:59:02.550Z,100544.72
2022-10-30T19:01:32.935Z,100543.81
2022-10-30T19:04:04.191Z,100531.47
2022-10-30T19:06:34.676Z,100531.56
2022-10-30T19:09:03.491Z,100521.78
2022-10-30T19:11:32.344Z,100519.25
2022-10-30T19:14:02.262Z,100527.31
2022-10-30T19:16:32.259Z,100500.03
2022-10-30T19:19:00.872Z,100509.75
2022-10-30T19:21:32.439Z,100507.19
2022-10-30T19:24:04.035Z,100512.41
2022-10-30T19:26:32.333Z,100504.69
2022-10-30T19:29:02.448Z,100515.03
2022-10-30T19:31:31.263Z,100508.03
2022-10-30T19:33:59.553Z,100506.13
2022-10-30T19:36:30.936Z,100501.81
2022-10-30T19:39:04.248Z,100504.44
2022-10-30T19:41:44.636Z,100499.97
2022-10-30T19:44:14.833Z,100495.53
2022-10-30T19:46:43.088Z,100491.31
2022-10-30T19:49:18.451Z,100494.16
2022-10-30T19:51:47.127Z,100497.56
2022-10-30T19:54:15.812Z,100492.22
2022-10-30T19:56:44.669Z,100496.69
2022-10-30T19:59:16.480Z,100487.81
2022-10-30T20:01:45.316Z,100484.22
2022-10-30T20:04:14.533Z,100486.75
2022-10-30T20:06:43.019Z,100483.06
2022-10-30T20:09:14.582Z,100478.78
2022-10-30T20:11:42.918Z,100477.81
2022-10-30T20:14:11.263Z,100477.16
2022-10-30T20:16:40.890Z,100488.56
2022-10-30T20:19:27.725Z,100467.69
2022-10-30T20:21:56.249Z,100483.25
2022-10-30T20:24:25.005Z,100483.25
2022-10-30T20:26:58.560Z,100479.09
2022-10-30T20:29:26.758Z,100486.75
2022-10-30T20:31:56.500Z,100492.22
2022-10-30T20:34:25.291Z,100485.09
2022-10-30T20:36:53.416Z,100486.09
2022-10-30T20:39:21.514Z,100481.75
2022-10-30T20:41:49.970Z,100494.25
2022-10-30T20:44:21.100Z,100494.25
2022-10-30T20:46:49.194Z,100491.59
2022-10-30T20:49:18.909Z,100487.22
2022-10-30T20:51:47.943Z,100480.03
2022-10-30T20:54:16.514Z,100481.75
2022-10-30T20:56:44.698Z,100463.34
2022-10-30T20:59:12.984Z,100472.84
2022-10-30T21:01:41.811Z,100478.22
2022-10-30T21:04:11.245Z,100474.66
2022-10-30T21:06:41.777Z,100483.50
2022-10-30T21:09:10.620Z,100478.06
2022-10-30T21:11:39.043Z,100486.91
2022-10-30T21:14:07.532Z,100477.97
2022-10-30T21:16:35.633Z,100493.78
2022-10-30T21:19:03.784Z,100485.91
2022-10-30T21:21:32.006Z,100493.72
2022-10-30T21:24:01.763Z,100488.41
2022-10-30T21:26:30.136Z,100483.13
2022-10-30T21:28:58.552Z,100477.81
2022-10-30T21:31:26.829Z,100472.66
2022-10-30T21:33:54.942Z,100472.66
2022-10-30T21:36:23.986Z,100477.06
2022-10-30T21:38:52.233Z,100477.06
2022-10-30T21:41:25.069Z,100477.97
2022-10-30T21:43:54.987Z,100480.59
2022-10-30T21:46:24.904Z,100467.31
2022-10-30T21:48:54.053Z,100477.81
2022-10-30T21:51:25.015Z,100465.66
2022-10-30T21:53:53.665Z,100470.94
2022-10-30T21:56:25.759Z,100493.78
2022-10-30T21:58:55.810Z,100493.72
2022-10-30T22:01:26.834Z,100479.97
2022-10-30T22:03:55.384Z,100498.09
2022-10-30T22:06:24.220Z,100488.34
2022-10-30T22:08:54.912Z,100488.34
2022-10-30T22:11:27.189Z,100493.66
2022-10-30T22:13:56.321Z,100489.19
2022-10-30T22:16:25.561Z,100487.47
2022-10-30T22:18:54.038Z,100487.41
2022-10-30T22:21:22.598Z,100485.72
2022-10-30T22:23:50.798Z,100490.13
2022-10-30T22:26:20.941Z,100493.72
2022-10-30T22:28:53.618Z,100504.31
2022-10-30T22:31:23.041Z,100495.38
2022-10-30T22:33:51.731Z,100498.94
2022-10-30T22:36:22.071Z,100491.00
2022-10-30T22:38:55.677Z,100488.28
2022-10-30T22:41:25.345Z,100483.88
2022-10-30T22:43:56.371Z,100486.59
2022-10-30T22:46:26.819Z,100490.06
2022-10-30T22:48:55.142Z,100484.69
2022-10-30T22:51:23.802Z,100469.72
2022-10-30T22:53:57.602Z,100475.94
2022-10-30T22:56:27.899Z,100459.97
2022-10-30T22:58:58.178Z,100463.59
2022-10-30T23:01:29.119Z,100466.22
2022-10-30T23:03:59.065Z,100470.69
2022-10-30T23:06:28.537Z,100474.34
2022-10-30T23:08:59.097Z,100474.34
2022-10-30T23:11:28.361Z,100474.19
2022-10-30T23:13:58.294Z,100472.28
2022-10-30T23:16:27.976Z,100469.50
2022-10-30T23:18:57.614Z,100461.56
2022-10-30T23:21:27.587Z,100470.44
2022-10-30T23:23:56.907Z,100461.69
2022-10-30T23:26:26.738Z,100473.22
2022-10-30T23:28:56.261Z,100479.41
2022-10-30T23:31:27.787Z,100477.69
2022-10-30T23:33:57.845Z,100467.06
2022-10-30T23:36:26.697Z,100467.06
2022-10-30T23:38:55.925Z,100467.91
2022-10-30T23:41:25.897Z,100468.75
2022-10-30T23:43:55.331Z,100468.81
2022-10-30T23:46:23.740Z,100469.69
2022-10-30T23:48:53.814Z,100453.06
2022-10-30T23:51:22.883Z,100472.19
2022-10-30T23:53:51.896Z,100475.69
2022-10-30T23:56:20.662Z,100466.22
2022-10-30T23:58:50.814Z,100479.31
